sensor_id;sensor_type;location;lat;lon;timestamp;pressure;altitude;pressure_sealevel;temperature;humidity
55604;BME280;41468;48.838;9.330;2023-01-28T00:00:17;98935.56;;;1.67;81.48
55604;BME280;41468;48.838;9.330;2023-01-28T00:02:46;98925.53;;;1.73;81.15
55604;BME280;41468;48.838;9.330;2023-01-28T00:05:13;98922.31;;;1.71;81.59
55604;BME280;41468;48.838;9.330;2023-01-28T00:07:40;98921.53;;;1.70;81.45
55604;BME280;41468;48.838;9.330;2023-01-28T00:10:07;98922.88;;;1.87;81.08
55604;BME280;41468;48.838;9.330;2023-01-28T00:12:34;98918.34;;;1.82;80.73
55604;BME280;41468;48.838;9.330;2023-01-28T00:15:12;98921.06;;;1.82;80.83
55604;BME280;41468;48.838;9.330;2023-01-28T00:17:40;98921.09;;;1.96;80.42
55604;BME280;41468;48.838;9.330;2023-01-28T00:20:07;98912.44;;;1.99;80.01
55604;BME280;41468;48.838;9.330;2023-01-28T00:22:34;98927.38;;;1.91;79.90
55604;BME280;41468;48.838;9.330;2023-01-28T00:25:00;98917.19;;;1.88;79.58
55604;BME280;41468;48.838;9.330;2023-01-28T00:27:27;98915.97;;;1.81;80.34
55604;BME280;41468;48.838;9.330;2023-01-28T00:29:53;98913.75;;;1.83;80.27
55604;BME280;41468;48.838;9.330;2023-01-28T00:32:20;98919.81;;;1.74;80.71
55604;BME280;41468;48.838;9.330;2023-01-28T00:34:47;98909.78;;;1.80;80.65
55604;BME280;41468;48.838;9.330;2023-01-28T00:37:15;98903.97;;;1.73;81.14
55604;BME280;41468;48.838;9.330;2023-01-28T00:39:42;98908.06;;;1.70;81.23
55604;BME280;41468;48.838;9.330;2023-01-28T00:42:08;98904.34;;;1.66;81.73
55604;BME280;41468;48.838;9.330;2023-01-28T00:44:35;98898.47;;;1.64;81.31
55604;BME280;41468;48.838;9.330;2023-01-28T00:47:06;98907.38;;;1.79;81.66
55604;BME280;41468;48.838;9.330;2023-01-28T00:49:33;98900.19;;;1.74;81.71
55604;BME280;41468;48.838;9.330;2023-01-28T00:51:59;98903.78;;;1.69;81.87
55604;BME280;41468;48.838;9.330;2023-01-28T00:54:31;98897.81;;;1.72;81.93
55604;BME280;41468;48.838;9.330;2023-01-28T00:56:57;98910.66;;;1.75;81.78
55604;BME280;41468;48.838;9.330;2023-01-28T00:59:24;98899.66;;;1.72;82.00
55604;BME280;41468;48.838;9.330;2023-01-28T01:01:51;98900.84;;;1.66;81.94
55604;BME280;41468;48.838;9.330;2023-01-28T01:04:17;98899.84;;;1.62;82.12
55604;BME280;41468;48.838;9.330;2023-01-28T01:06:52;98906.25;;;1.66;82.22
55604;BME280;41468;48.838;9.330;2023-01-28T01:09:19;98902.69;;;1.70;81.94
55604;BME280;41468;48.838;9.330;2023-01-28T01:11:45;98897.81;;;1.72;82.27
55604;BME280;41468;48.838;9.330;2023-01-28T01:14:12;98904.34;;;1.66;82.09
55604;BME280;41468;48.838;9.330;2023-01-28T01:16:38;98904.34;;;1.66;81.88
55604;BME280;41468;48.838;9.330;2023-01-28T01:19:05;98907.19;;;1.75;82.22
55604;BME280;41468;48.838;9.330;2023-01-28T01:21:32;98906.75;;;1.68;81.94
55604;BME280;41468;48.838;9.330;2023-01-28T01:23:59;98911.03;;;1.69;82.22
55604;BME280;41468;48.838;9.330;2023-01-28T01:26:25;98912.34;;;1.71;81.94
55604;BME280;41468;48.838;9.330;2023-01-28T01:28:53;98913.66;;;1.74;82.11
55604;BME280;41468;48.838;9.330;2023-01-28T01:31:21;98909.28;;;1.78;81.81
55604;BME280;41468;48.838;9.330;2023-01-28T01:33:50;98907.03;;;1.66;81.57
55604;BME280;41468;48.838;9.330;2023-01-28T01:36:18;98912.00;;;1.59;82.33
55604;BME280;41468;48.838;9.330;2023-01-28T01:38:47;98913.53;;;1.65;82.26
55604;BME280;41468;48.838;9.330;2023-01-28T01:43:58;98914.03;;;1.67;82.09
55604;BME280;41468;48.838;9.330;2023-01-28T01:46:43;98911.94;;;1.64;82.27
55604;BME280;41468;48.838;9.330;2023-01-28T01:49:24;98921.88;;;1.64;82.15
55604;BME280;41468;48.838;9.330;2023-01-28T01:51:54;98921.00;;;1.68;82.14
55604;BME280;41468;48.838;9.330;2023-01-28T01:54:25;98919.94;;;1.69;81.57
55604;BME280;41468;48.838;9.330;2023-01-28T01:56:54;98922.91;;;1.68;81.88
55604;BME280;41468;48.838;9.330;2023-01-28T01:59:25;98920.06;;;1.78;81.77
55604;BME280;41468;48.838;9.330;2023-01-28T02:01:53;98925.56;;;1.87;81.38
55604;BME280;41468;48.838;9.330;2023-01-28T02:04:25;98920.09;;;1.92;81.19
55604;BME280;41468;48.838;9.330;2023-01-28T02:06:52;98925.16;;;1.93;80.87
55604;BME280;41468;48.838;9.330;2023-01-28T02:09:30;98921.94;;;1.77;81.67
55604;BME280;41468;48.838;9.330;2023-01-28T02:12:04;98925.63;;;1.82;81.79
55604;BME280;41468;48.838;9.330;2023-01-28T02:14:35;98924.22;;;1.70;82.07
55604;BME280;41468;48.838;9.330;2023-01-28T02:17:04;98920.94;;;1.73;82.19
55604;BME280;41468;48.838;9.330;2023-01-28T02:19:38;98920.34;;;1.76;82.00
55604;BME280;41468;48.838;9.330;2023-01-28T02:25:12;98927.91;;;1.74;82.17
55604;BME280;41468;48.838;9.330;2023-01-28T02:28:11;98939.56;;;1.70;82.31
55604;BME280;41468;48.838;9.330;2023-01-28T02:30:52;98934.91;;;1.75;82.34
55604;BME280;41468;48.838;9.330;2023-01-28T02:33:29;98930.22;;;1.81;82.19
55604;BME280;41468;48.838;9.330;2023-01-28T02:36:12;98925.31;;;1.69;82.36
55604;BME280;41468;48.838;9.330;2023-01-28T02:38:46;98924.72;;;1.72;82.56
55604;BME280;41468;48.838;9.330;2023-01-28T02:41:22;98932.44;;;1.60;83.30
55604;BME280;41468;48.838;9.330;2023-01-28T02:43:50;98936.53;;;1.58;83.63
55604;BME280;41468;48.838;9.330;2023-01-28T02:49:09;98934.63;;;1.58;83.38
55604;BME280;41468;48.838;9.330;2023-01-28T02:51:58;98934.63;;;1.58;83.57
55604;BME280;41468;48.838;9.330;2023-01-28T02:54:37;98940.97;;;1.67;83.56
55604;BME280;41468;48.838;9.330;2023-01-28T02:57:18;98947.41;;;1.66;83.18
55604;BME280;41468;48.838;9.330;2023-01-28T02:59:57;98938.66;;;1.74;83.06
55604;BME280;41468;48.838;9.330;2023-01-28T03:02:47;98943.19;;;1.79;83.27
55604;BME280;41468;48.838;9.330;2023-01-28T03:05:29;98944.38;;;1.73;83.30
55604;BME280;41468;48.838;9.330;2023-01-28T03:08:08;98944.50;;;1.82;83.11
55604;BME280;41468;48.838;9.330;2023-01-28T03:10:56;98944.41;;;1.87;82.78
55604;BME280;41468;48.838;9.330;2023-01-28T03:13:43;98947.63;;;1.89;83.07
55604;BME280;41468;48.838;9.330;2023-01-28T03:16:30;98942.81;;;1.86;82.90
55604;BME280;41468;48.838;9.330;2023-01-28T03:19:19;98936.50;;;1.76;83.35
55604;BME280;41468;48.838;9.330;2023-01-28T03:22:05;98944.69;;;1.85;83.07
55604;BME280;41468;48.838;9.330;2023-01-28T03:24:51;98941.00;;;1.81;83.65
55604;BME280;41468;48.838;9.330;2023-01-28T03:27:46;98943.69;;;1.81;83.88
55604;BME280;41468;48.838;9.330;2023-01-28T03:31:18;98948.13;;;1.72;84.06
55604;BME280;41468;48.838;9.330;2023-01-28T03:34:05;98935.91;;;1.80;83.94
55604;BME280;41468;48.838;9.330;2023-01-28T03:36:52;98942.47;;;1.73;84.61
55604;BME280;41468;48.838;9.330;2023-01-28T03:39:23;98939.63;;;1.84;84.60
55604;BME280;41468;48.838;9.330;2023-01-28T03:42:01;98938.50;;;1.85;84.94
55604;BME280;41468;48.838;9.330;2023-01-28T03:44:33;98949.88;;;1.82;85.20
55604;BME280;41468;48.838;9.330;2023-01-28T03:47:20;98956.66;;;1.79;85.65
55604;BME280;41468;48.838;9.330;2023-01-28T03:49:50;98949.28;;;1.85;85.77
55604;BME280;41468;48.838;9.330;2023-01-28T03:52:24;98963.34;;;1.82;85.99
55604;BME280;41468;48.838;9.330;2023-01-28T03:54:52;98964.59;;;1.70;87.26
55604;BME280;41468;48.838;9.330;2023-01-28T03:57:21;98966.19;;;1.71;87.17
55604;BME280;41468;48.838;9.330;2023-01-28T03:59:48;98957.63;;;1.69;87.34
55604;BME280;41468;48.838;9.330;2023-01-28T04:02:16;98962.41;;;1.72;87.61
55604;BME280;41468;48.838;9.330;2023-01-28T04:04:42;98965.53;;;1.80;86.56
55604;BME280;41468;48.838;9.330;2023-01-28T04:07:10;98962.41;;;1.72;88.26
55604;BME280;41468;48.838;9.330;2023-01-28T04:09:37;98959.28;;;1.65;88.38
55604;BME280;41468;48.838;9.330;2023-01-28T04:12:04;98949.63;;;1.64;87.90
55604;BME280;41468;48.838;9.330;2023-01-28T04:14:31;98957.25;;;1.76;87.76
55604;BME280;41468;48.838;9.330;2023-01-28T04:16:58;98959.41;;;1.74;87.75
55604;BME280;41468;48.838;9.330;2023-01-28T04:19:26;98955.72;;;1.70;88.40
55604;BME280;41468;48.838;9.330;2023-01-28T04:21:53;98964.59;;;1.70;88.36
55604;BME280;41468;48.838;9.330;2023-01-28T04:24:22;98971.56;;;1.71;88.04
55604;BME280;41468;48.838;9.330;2023-01-28T04:26:49;98969.53;;;1.63;89.17
55604;BME280;41468;48.838;9.330;2023-01-28T04:29:15;98975.72;;;1.64;88.89
55604;BME280;41468;48.838;9.330;2023-01-28T04:31:42;98987.59;;;1.63;89.21
55604;BME280;41468;48.838;9.330;2023-01-28T04:34:09;98984.09;;;1.62;89.22
55604;BME280;41468;48.838;9.330;2023-01-28T04:36:47;98980.63;;;1.62;89.36
55604;BME280;41468;48.838;9.330;2023-01-28T04:39:13;98996.38;;;1.68;89.35
55604;BME280;41468;48.838;9.330;2023-01-28T04:41:40;98995.44;;;1.78;88.48
55604;BME280;41468;48.838;9.330;2023-01-28T04:44:12;98997.50;;;1.67;89.29
55604;BME280;41468;48.838;9.330;2023-01-28T04:46:39;98998.72;;;1.75;89.54
55604;BME280;41468;48.838;9.330;2023-01-28T04:49:06;98998.94;;;1.79;88.97
55604;BME280;41468;48.838;9.330;2023-01-28T04:51:32;98999.66;;;1.84;88.68
55604;BME280;41468;48.838;9.330;2023-01-28T04:53:59;98989.28;;;1.77;89.12
55604;BME280;41468;48.838;9.330;2023-01-28T04:56:26;98996.31;;;1.73;89.42
55604;BME280;41468;48.838;9.330;2023-01-28T04:58:52;98995.31;;;1.69;90.13
55604;BME280;41468;48.838;9.330;2023-01-28T05:01:19;98992.91;;;1.68;90.12
55604;BME280;41468;48.838;9.330;2023-01-28T05:03:45;98997.50;;;1.67;90.35
55604;BME280;41468;48.838;9.330;2023-01-28T05:06:12;98997.34;;;1.77;89.48
55604;BME280;41468;48.838;9.330;2023-01-28T05:08:38;99006.63;;;1.85;89.33
55604;BME280;41468;48.838;9.330;2023-01-28T05:11:05;99007.53;;;1.81;89.25
55604;BME280;41468;48.838;9.330;2023-01-28T05:13:31;98999.13;;;1.82;89.63
55604;BME280;41468;48.838;9.330;2023-01-28T05:15:58;99000.25;;;1.62;90.78
55604;BME280;41468;48.838;9.330;2023-01-28T05:18:25;98984.53;;;1.69;91.18
55604;BME280;41468;48.838;9.330;2023-01-28T05:20:51;98991.38;;;1.81;90.95
55604;BME280;41468;48.838;9.330;2023-01-28T05:23:18;98997.84;;;1.80;90.59
55604;BME280;41468;48.838;9.330;2023-01-28T05:25:44;98990.94;;;1.73;90.89
55604;BME280;41468;48.838;9.330;2023-01-28T05:28:12;98994.81;;;1.67;90.94
55604;BME280;41468;48.838;9.330;2023-01-28T05:30:38;98990.06;;;1.59;91.80
55604;BME280;41468;48.838;9.330;2023-01-28T05:33:05;98994.81;;;1.67;91.24
55604;BME280;41468;48.838;9.330;2023-01-28T05:35:32;98996.97;;;1.84;90.51
55604;BME280;41468;48.838;9.330;2023-01-28T05:37:58;98990.94;;;1.73;91.20
55604;BME280;41468;48.838;9.330;2023-01-28T05:40:25;98993.84;;;1.77;90.48
55604;BME280;41468;48.838;9.330;2023-01-28T05:42:51;98994.22;;;1.70;90.96
55604;BME280;41468;48.838;9.330;2023-01-28T05:45:18;98992.84;;;1.73;90.77
55604;BME280;41468;48.838;9.330;2023-01-28T05:47:45;98991.44;;;1.75;90.46
55604;BME280;41468;48.838;9.330;2023-01-28T05:50:12;99006.88;;;1.70;90.93
55604;BME280;41468;48.838;9.330;2023-01-28T05:52:40;99003.81;;;1.76;90.21
55604;BME280;41468;48.838;9.330;2023-01-28T05:55:07;99006.09;;;1.69;90.15
55604;BME280;41468;48.838;9.330;2023-01-28T05:57:34;99016.84;;;1.69;90.34
55604;BME280;41468;48.838;9.330;2023-01-28T06:00:01;99002.22;;;1.75;90.08
55604;BME280;41468;48.838;9.330;2023-01-28T06:02:28;99007.94;;;1.88;88.89
55604;BME280;41468;48.838;9.330;2023-01-28T06:04:59;99016.53;;;1.90;88.68
55604;BME280;41468;48.838;9.330;2023-01-28T06:07:26;99014.16;;;1.88;88.52
55604;BME280;41468;48.838;9.330;2023-01-28T06:09:53;99021.28;;;1.79;89.05
55604;BME280;41468;48.838;9.330;2023-01-28T06:12:19;99017.41;;;1.66;89.76
55604;BME280;41468;48.838;9.330;2023-01-28T06:14:46;99030.59;;;1.68;89.79
55604;BME280;41468;48.838;9.330;2023-01-28T06:17:12;99028.63;;;1.73;89.97
55604;BME280;41468;48.838;9.330;2023-01-28T06:19:39;99042.81;;;1.79;89.23
55604;BME280;41468;48.838;9.330;2023-01-28T06:22:06;99045.66;;;1.88;88.37
55604;BME280;41468;48.838;9.330;2023-01-28T06:24:32;99046.09;;;1.95;88.01
55604;BME280;41468;48.838;9.330;2023-01-28T06:26:59;99046.81;;;1.82;88.64
55604;BME280;41468;48.838;9.330;2023-01-28T06:29:25;99052.50;;;1.80;88.77
55604;BME280;41468;48.838;9.330;2023-01-28T06:31:52;99057.72;;;1.71;89.42
55604;BME280;41468;48.838;9.330;2023-01-28T06:34:19;99064.44;;;1.74;89.76
55604;BME280;41468;48.838;9.330;2023-01-28T06:36:46;99066.03;;;1.75;89.41
55604;BME280;41468;48.838;9.330;2023-01-28T06:39:12;99062.97;;;1.82;89.03
55604;BME280;41468;48.838;9.330;2023-01-28T06:41:39;99068.66;;;1.80;89.30
55604;BME280;41468;48.838;9.330;2023-01-28T06:44:06;99066.31;;;1.73;89.75
55604;BME280;41468;48.838;9.330;2023-01-28T06:46:32;99073.88;;;1.71;89.87
55604;BME280;41468;48.838;9.330;2023-01-28T06:48:59;99075.50;;;1.72;90.06
55604;BME280;41468;48.838;9.330;2023-01-28T06:51:26;99073.81;;;1.76;89.83
55604;BME280;41468;48.838;9.330;2023-01-28T06:53:52;99078.69;;;1.74;90.04
55604;BME280;41468;48.838;9.330;2023-01-28T06:56:19;99084.91;;;1.75;89.90
55604;BME280;41468;48.838;9.330;2023-01-28T06:58:45;99080.97;;;1.86;89.47
55604;BME280;41468;48.838;9.330;2023-01-28T07:01:12;99087.28;;;1.76;89.64
55604;BME280;41468;48.838;9.330;2023-01-28T07:03:39;99085.09;;;1.79;89.52
55604;BME280;41468;48.838;9.330;2023-01-28T07:06:12;99089.31;;;1.85;89.80
55604;BME280;41468;48.838;9.330;2023-01-28T07:08:38;99080.66;;;1.88;89.05
55604;BME280;41468;48.838;9.330;2023-01-28T07:11:07;99087.88;;;1.73;89.79
55604;BME280;41468;48.838;9.330;2023-01-28T07:13:34;99086.56;;;1.71;90.21
55604;BME280;41468;48.838;9.330;2023-01-28T07:16:00;99083.59;;;1.72;90.34
55604;BME280;41468;48.838;9.330;2023-01-28T07:18:27;99089.69;;;1.78;90.18
55604;BME280;41468;48.838;9.330;2023-01-28T07:20:54;99097.38;;;1.66;91.01
55604;BME280;41468;48.838;9.330;2023-01-28T07:23:20;99094.94;;;1.69;90.94
55604;BME280;41468;48.838;9.330;2023-01-28T07:25:47;99094.34;;;1.72;90.69
55604;BME280;41468;48.838;9.330;2023-01-28T07:28:14;99093.53;;;1.72;90.67
55604;BME280;41468;48.838;9.330;2023-01-28T07:30:49;99097.25;;;1.76;90.99
55604;BME280;41468;48.838;9.330;2023-01-28T07:33:19;99104.16;;;1.82;90.19
55604;BME280;41468;48.838;9.330;2023-01-28T07:35:47;99104.16;;;1.82;90.46
55604;BME280;41468;48.838;9.330;2023-01-28T07:38:14;99104.41;;;1.86;89.80
55604;BME280;41468;48.838;9.330;2023-01-28T07:40:40;99104.53;;;1.94;89.70
55604;BME280;41468;48.838;9.330;2023-01-28T07:43:08;99104.41;;;1.86;90.17
55604;BME280;41468;48.838;9.330;2023-01-28T07:45:35;99111.59;;;1.90;90.23
55604;BME280;41468;48.838;9.330;2023-01-28T07:48:05;99107.91;;;1.86;90.43
55604;BME280;41468;48.838;9.330;2023-01-28T07:50:34;99114.34;;;1.85;90.28
55604;BME280;41468;48.838;9.330;2023-01-28T07:53:06;99110.06;;;1.84;90.59
55604;BME280;41468;48.838;9.330;2023-01-28T07:55:33;99111.66;;;1.85;90.50
55604;BME280;41468;48.838;9.330;2023-01-28T07:58:05;99119.09;;;1.93;90.21
55604;BME280;41468;48.838;9.330;2023-01-28T08:00:34;99124.47;;;1.93;90.40
55604;BME280;41468;48.838;9.330;2023-01-28T08:03:03;99124.84;;;1.87;90.92
55604;BME280;41468;48.838;9.330;2023-01-28T08:05:45;99126.88;;;1.95;90.27
55604;BME280;41468;48.838;9.330;2023-01-28T08:08:12;99132.72;;;2.02;90.55
55604;BME280;41468;48.838;9.330;2023-01-28T08:10:39;99124.13;;;2.00;90.40
55604;BME280;41468;48.838;9.330;2023-01-28T08:13:08;99124.72;;;1.97;90.64
55604;BME280;41468;48.838;9.330;2023-01-28T08:15:35;99131.69;;;1.98;90.87
55604;BME280;41468;48.838;9.330;2023-01-28T08:18:03;99129.66;;;2.09;90.28
55604;BME280;41468;48.838;9.330;2023-01-28T08:20:30;99129.97;;;2.07;90.84
55604;BME280;41468;48.838;9.330;2023-01-28T08:23:06;99133.97;;;2.29;89.25
55604;BME280;41468;48.838;9.330;2023-01-28T08:25:34;99133.44;;;2.27;89.47
55604;BME280;41468;48.838;9.330;2023-01-28T08:28:04;99131.81;;;2.26;89.53
55604;BME280;41468;48.838;9.330;2023-01-28T08:30:31;99138.97;;;2.35;88.89
55604;BME280;41468;48.838;9.330;2023-01-28T08:32:58;99136.72;;;2.24;89.67
55604;BME280;41468;48.838;9.330;2023-01-28T08:35:26;99135.47;;;2.35;89.79
55604;BME280;41468;48.838;9.330;2023-01-28T08:37:54;99138.19;;;2.35;89.25
55604;BME280;41468;48.838;9.330;2023-01-28T08:40:21;99141.06;;;2.38;89.25
55604;BME280;41468;48.838;9.330;2023-01-28T08:42:51;99134.16;;;2.51;88.55
55604;BME280;41468;48.838;9.330;2023-01-28T08:45:19;99131.16;;;2.53;88.19
55604;BME280;41468;48.838;9.330;2023-01-28T08:47:52;99130.66;;;2.51;87.65
55604;BME280;41468;48.838;9.330;2023-01-28T08:50:21;99139.97;;;2.58;87.76
55604;BME280;41468;48.838;9.330;2023-01-28T08:52:48;99135.06;;;2.60;88.30
55604;BME280;41468;48.838;9.330;2023-01-28T08:55:16;99128.00;;;2.64;87.68
55604;BME280;41468;48.838;9.330;2023-01-28T08:57:44;99134.03;;;2.75;86.69
55604;BME280;41468;48.838;9.330;2023-01-28T09:00:11;99139.78;;;2.69;86.27
55604;BME280;41468;48.838;9.330;2023-01-28T09:02:38;99139.78;;;2.69;86.48
55604;BME280;41468;48.838;9.330;2023-01-28T09:05:05;99137.69;;;2.65;86.30
55604;BME280;41468;48.838;9.330;2023-01-28T09:07:34;99143.22;;;2.74;85.79
55604;BME280;41468;48.838;9.330;2023-01-28T09:10:06;99148.84;;;2.92;85.22
55604;BME280;41468;48.838;9.330;2023-01-28T09:12:32;99145.88;;;2.93;85.29
55604;BME280;41468;48.838;9.330;2023-01-28T09:14:59;99156.59;;;2.79;86.20
55604;BME280;41468;48.838;9.330;2023-01-28T09:17:30;99150.44;;;2.93;84.85
55604;BME280;41468;48.838;9.330;2023-01-28T09:20:02;99158.09;;;3.18;85.78
55604;BME280;41468;48.838;9.330;2023-01-28T09:22:30;99151.19;;;2.98;82.99
55604;BME280;41468;48.838;9.330;2023-01-28T09:24:57;99156.84;;;2.97;84.40
55604;BME280;41468;48.838;9.330;2023-01-28T09:27:23;99161.28;;;3.06;83.83
55604;BME280;41468;48.838;9.330;2023-01-28T09:29:50;99157.06;;;3.14;83.59
55604;BME280;41468;48.838;9.330;2023-01-28T09:32:17;99171.97;;;3.12;83.19
55604;BME280;41468;48.838;9.330;2023-01-28T09:34:43;99174.00;;;3.20;82.22
55604;BME280;41468;48.838;9.330;2023-01-28T09:37:10;99172.69;;;3.17;82.15
55604;BME280;41468;48.838;9.330;2023-01-28T09:39:37;99178.66;;;3.14;83.55
55604;BME280;41468;48.838;9.330;2023-01-28T09:42:20;99180.28;;;3.15;82.15
55604;BME280;41468;48.838;9.330;2023-01-28T09:45:03;99183.19;;;3.19;82.52
55604;BME280;41468;48.838;9.330;2023-01-28T09:47:41;99193.47;;;3.17;82.62
55604;BME280;41468;48.838;9.330;2023-01-28T09:50:15;99187.38;;;3.25;80.85
55604;BME280;41468;48.838;9.330;2023-01-28T09:52:43;99187.16;;;3.07;81.08
55604;BME280;41468;48.838;9.330;2023-01-28T09:55:42;99190.47;;;3.04;82.43
55604;BME280;41468;48.838;9.330;2023-01-28T09:58:11;99193.44;;;3.03;82.87
55604;BME280;41468;48.838;9.330;2023-01-28T10:19:52;99180.00;;;2.84;83.76
55604;BME280;41468;48.838;9.330;2023-01-28T10:22:38;99182.69;;;2.84;84.00
55604;BME280;41468;48.838;9.330;2023-01-28T10:25:16;99172.41;;;2.86;83.82
55604;BME280;41468;48.838;9.330;2023-01-28T10:27:44;99179.31;;;2.92;83.54
55604;BME280;41468;48.838;9.330;2023-01-28T10:30:21;99176.03;;;2.95;83.24
55604;BME280;41468;48.838;9.330;2023-01-28T10:33:02;99178.44;;;2.97;83.12
55604;BME280;41468;48.838;9.330;2023-01-28T10:35:37;99175.59;;;4.40;94.58
55604;BME280;41468;48.838;9.330;2023-01-28T10:38:07;99172.72;;;3.59;81.17
55604;BME280;41468;48.838;9.330;2023-01-28T10:40:34;99169.63;;;3.51;81.82
55604;BME280;41468;48.838;9.330;2023-01-28T10:43:01;99168.91;;;3.32;81.96
55604;BME280;41468;48.838;9.330;2023-01-28T10:45:33;99161.31;;;3.34;82.13
55604;BME280;41468;48.838;9.330;2023-01-28T10:48:08;99164.63;;;3.31;81.44
55604;BME280;41468;48.838;9.330;2023-01-28T10:50:49;99167.22;;;3.36;81.37
55604;BME280;41468;48.838;9.330;2023-01-28T10:53:15;99169.41;;;3.34;81.77
55604;BME280;41468;48.838;9.330;2023-01-28T10:55:52;99173.53;;;3.45;81.71
55604;BME280;41468;48.838;9.330;2023-01-28T10:58:25;99167.50;;;3.48;80.46
55604;BME280;41468;48.838;9.330;2023-01-28T11:00:55;99167.94;;;3.42;81.42
55604;BME280;41468;48.838;9.330;2023-01-28T11:03:22;99168.13;;;3.45;81.31
55604;BME280;41468;48.838;9.330;2023-01-28T11:05:54;99179.50;;;3.28;80.27
55604;BME280;41468;48.838;9.330;2023-01-28T11:08:23;99182.81;;;3.25;81.49
55604;BME280;41468;48.838;9.330;2023-01-28T11:10:51;99178.91;;;3.18;80.98
55604;BME280;41468;48.838;9.330;2023-01-28T11:15:55;99177.47;;;3.06;80.68
55604;BME280;41468;48.838;9.330;2023-01-28T11:18:25;99173.38;;;3.09;80.23
55604;BME280;41468;48.838;9.330;2023-01-28T11:21:02;99175.78;;;3.10;80.20
55604;BME280;41468;48.838;9.330;2023-01-28T11:23:32;99175.16;;;3.14;80.84
55604;BME280;41468;48.838;9.330;2023-01-28T11:26:07;99178.66;;;3.14;81.17
55604;BME280;41468;48.838;9.330;2023-01-28T11:28:40;99176.66;;;3.06;81.64
55604;BME280;41468;48.838;9.330;2023-01-28T11:31:10;99173.88;;;3.25;81.11
55604;BME280;41468;48.838;9.330;2023-01-28T11:33:43;99190.84;;;3.12;81.17
55604;BME280;41468;48.838;9.330;2023-01-28T11:36:16;99178.28;;;3.21;81.60
55604;BME280;41468;48.838;9.330;2023-01-28T11:38:51;99182.97;;;3.15;81.27
55604;BME280;41468;48.838;9.330;2023-01-28T11:43:54;99180.28;;;3.15;82.11
55604;BME280;41468;48.838;9.330;2023-01-28T11:46:54;99176.78;;;3.15;80.85
55604;BME280;41468;48.838;9.330;2023-01-28T11:52:54;99179.50;;;3.15;81.84
55604;BME280;41468;48.838;9.330;2023-01-28T12:04:53;99176.91;;;3.37;82.22
55604;BME280;41468;48.838;9.330;2023-01-28T12:10:11;99183.66;;;3.07;81.06
55604;BME280;41468;48.838;9.330;2023-01-28T12:13:02;99177.47;;;3.06;82.36
55604;BME280;41468;48.838;9.330;2023-01-28T12:21:04;99172.28;;;3.10;82.34
55604;BME280;41468;48.838;9.330;2023-01-28T12:23:38;99175.69;;;3.16;82.29
55604;BME280;41468;48.838;9.330;2023-01-28T12:26:16;99182.91;;;3.20;82.45
55604;BME280;41468;48.838;9.330;2023-01-28T12:35:34;99182.50;;;3.27;82.09
55604;BME280;41468;48.838;9.330;2023-01-28T12:38:23;99185.72;;;3.29;81.95
55604;BME280;41468;48.838;9.330;2023-01-28T12:44:01;99178.81;;;3.37;82.00
55604;BME280;41468;48.838;9.330;2023-01-28T12:46:34;99176.31;;;3.26;82.54
55604;BME280;41468;48.838;9.330;2023-01-28T12:49:17;99164.72;;;3.26;82.86
55604;BME280;41468;48.838;9.330;2023-01-28T12:51:48;99178.28;;;3.21;83.30
55604;BME280;41468;48.838;9.330;2023-01-28T12:54:28;99167.50;;;3.21;84.13
55604;BME280;41468;48.838;9.330;2023-01-28T12:56:58;99172.47;;;3.14;84.91
55604;BME280;41468;48.838;9.330;2023-01-28T13:02:45;99173.84;;;2.97;86.48
55604;BME280;41468;48.838;9.330;2023-01-28T13:05:19;99170.22;;;2.88;88.29
55604;BME280;41468;48.838;9.330;2023-01-28T13:07:58;99167.38;;;2.98;88.78
55604;BME280;41468;48.838;9.330;2023-01-28T13:13:14;99168.44;;;2.97;89.21
55604;BME280;41468;48.838;9.330;2023-01-28T13:15:43;99178.09;;;2.84;89.75
55604;BME280;41468;48.838;9.330;2023-01-28T13:18:44;99172.34;;;2.91;89.56
55604;BME280;41468;48.838;9.330;2023-01-28T13:21:35;99174.31;;;2.85;89.73
55604;BME280;41468;48.838;9.330;2023-01-28T13:26:44;99173.59;;;2.80;88.56
55604;BME280;41468;48.838;9.330;2023-01-28T13:31:43;99172.78;;;2.79;90.42
55604;BME280;41468;48.838;9.330;2023-01-28T13:36:56;99177.34;;;2.98;89.18
55604;BME280;41468;48.838;9.330;2023-01-28T13:39:29;99173.84;;;2.97;88.50
55604;BME280;41468;48.838;9.330;2023-01-28T13:42:20;99175.47;;;2.98;87.29
55604;BME280;41468;48.838;9.330;2023-01-28T13:44:48;99180.00;;;2.84;87.85
55604;BME280;41468;48.838;9.330;2023-01-28T13:49:49;99185.06;;;2.72;87.84
55604;BME280;41468;48.838;9.330;2023-01-28T13:52:26;99181.63;;;2.85;87.76
55604;BME280;41468;48.838;9.330;2023-01-28T13:54:58;99190.81;;;2.98;87.53
55604;BME280;41468;48.838;9.330;2023-01-28T14:00:35;99182.88;;;3.06;86.69
55604;BME280;41468;48.838;9.330;2023-01-28T14:03:34;99184.47;;;3.07;86.57
55604;BME280;41468;48.838;9.330;2023-01-28T14:06:44;99183.66;;;3.07;84.97
55604;BME280;41468;48.838;9.330;2023-01-28T14:17:34;99198.72;;;2.94;83.97
55604;BME280;41468;48.838;9.330;2023-01-28T14:19:58;99198.44;;;2.96;84.21
55604;BME280;41468;48.838;9.330;2023-01-28T14:22:26;99196.94;;;3.03;83.62
55604;BME280;41468;48.838;9.330;2023-01-28T14:24:59;99205.03;;;3.03;82.81
55604;BME280;41468;48.838;9.330;2023-01-28T14:27:31;99207.47;;;3.19;82.38
55604;BME280;41468;48.838;9.330;2023-01-28T14:30:15;99210.25;;;3.14;82.56
55604;BME280;41468;48.838;9.330;2023-01-28T14:32:45;99210.34;;;3.08;82.64
55604;BME280;41468;48.838;9.330;2023-01-28T14:35:18;99212.75;;;3.10;83.38
55604;BME280;41468;48.838;9.330;2023-01-28T14:37:45;99203.22;;;2.99;82.12
55604;BME280;41468;48.838;9.330;2023-01-28T14:40:14;99219.09;;;3.00;82.28
55604;BME280;41468;48.838;9.330;2023-01-28T14:42:45;99221.81;;;3.00;82.75
55604;BME280;41468;48.838;9.330;2023-01-28T14:48:27;99216.25;;;3.10;80.52
55604;BME280;41468;48.838;9.330;2023-01-28T14:54:16;99222.03;;;3.04;81.44
55604;BME280;41468;48.838;9.330;2023-01-28T14:59:53;99235.06;;;3.16;81.34
55604;BME280;41468;48.838;9.330;2023-01-28T15:02:26;99226.16;;;3.15;81.08
55604;BME280;41468;48.838;9.330;2023-01-28T15:04:54;99231.72;;;3.05;81.77
55604;BME280;41468;48.838;9.330;2023-01-28T15:07:25;99232.25;;;3.07;81.73
55604;BME280;41468;48.838;9.330;2023-01-28T15:10:07;99229.00;;;2.91;82.32
55604;BME280;41468;48.838;9.330;2023-01-28T15:12:42;99242.47;;;2.91;81.89